sensor_id;sensor_type;location;lat;lon;timestamp;P1;durP1;ratioP1;P2;durP2;ratioP2
14203;SDS011;7185;51.854;6.622;2023-05-14T00:01:22;9.85;;;8.23;;
14203;SDS011;7185;51.854;6.622;2023-05-14T00:03:55;13.48;;;9.27;;
14203;SDS011;7185;51.854;6.622;2023-05-14T00:06:27;12.25;;;8.98;;
14203;SDS011;7185;51.854;6.622;2023-05-14T00:08:58;13.60;;;8.80;;
14203;SDS011;7185;51.854;6.622;2023-05-14T00:11:30;12.35;;;8.40;;
14203;SDS011;7185;51.854;6.622;2023-05-14T00:14:01;13.20;;;8.52;;
14203;SDS011;7185;51.854;6.622;2023-05-14T00:16:33;18.27;;;9.23;;
14203;SDS011;7185;51.854;6.622;2023-05-14T00:19:06;12.18;;;8.38;;
14203;SDS011;7185;51.854;6.622;2023-05-14T00:21:37;12.57;;;8.00;;
14203;SDS011;7185;51.854;6.622;2023-05-14T00:24:09;13.20;;;9.00;;
14203;SDS011;7185;51.854;6.622;2023-05-14T00:26:41;9.38;;;7.70;;
14203;SDS011;7185;51.854;6.622;2023-05-14T00:29:12;12.23;;;9.02;;
14203;SDS011;7185;51.854;6.622;2023-05-14T00:31:44;11.23;;;8.23;;
14203;SDS011;7185;51.854;6.622;2023-05-14T00:34:17;13.85;;;8.43;;
14203;SDS011;7185;51.854;6.622;2023-05-14T00:36:49;12.15;;;7.90;;
14203;SDS011;7185;51.854;6.622;2023-05-14T00:39:21;14.98;;;8.25;;
14203;SDS011;7185;51.854;6.622;2023-05-14T00:41:52;11.15;;;8.25;;
14203;SDS011;7185;51.854;6.622;2023-05-14T00:44:24;13.95;;;8.10;;
14203;SDS011;7185;51.854;6.622;2023-05-14T00:46:55;11.50;;;8.15;;
14203;SDS011;7185;51.854;6.622;2023-05-14T00:49:29;13.00;;;7.78;;
14203;SDS011;7185;51.854;6.622;2023-05-14T00:52:01;9.88;;;7.78;;
14203;SDS011;7185;51.854;6.622;2023-05-14T00:54:33;15.38;;;8.05;;
14203;SDS011;7185;51.854;6.622;2023-05-14T00:57:05;12.93;;;7.93;;
14203;SDS011;7185;51.854;6.622;2023-05-14T00:59:37;13.75;;;8.27;;
14203;SDS011;7185;51.854;6.622;2023-05-14T01:02:10;10.13;;;8.05;;
14203;SDS011;7185;51.854;6.622;2023-05-14T01:04:43;15.70;;;8.77;;
14203;SDS011;7185;51.854;6.622;2023-05-14T01:07:15;15.30;;;8.82;;
14203;SDS011;7185;51.854;6.622;2023-05-14T01:09:54;17.38;;;8.80;;
14203;SDS011;7185;51.854;6.622;2023-05-14T01:12:32;12.77;;;9.07;;
14203;SDS011;7185;51.854;6.622;2023-05-14T01:15:08;15.35;;;8.90;;
14203;SDS011;7185;51.854;6.622;2023-05-14T01:17:44;15.35;;;9.32;;
14203;SDS011;7185;51.854;6.622;2023-05-14T01:23:00;12.40;;;9.07;;
14203;SDS011;7185;51.854;6.622;2023-05-14T01:25:33;16.83;;;10.10;;
14203;SDS011;7185;51.854;6.622;2023-05-14T01:28:05;17.65;;;9.43;;
14203;SDS011;7185;51.854;6.622;2023-05-14T01:30:42;20.58;;;10.57;;
14203;SDS011;7185;51.854;6.622;2023-05-14T01:33:20;18.20;;;10.15;;
14203;SDS011;7185;51.854;6.622;2023-05-14T01:35:55;13.13;;;9.98;;
14203;SDS011;7185;51.854;6.622;2023-05-14T01:38:28;22.45;;;10.98;;
14203;SDS011;7185;51.854;6.622;2023-05-14T01:41:02;16.48;;;10.13;;
14203;SDS011;7185;51.854;6.622;2023-05-14T01:43:35;15.20;;;10.90;;
14203;SDS011;7185;51.854;6.622;2023-05-14T01:46:07;18.50;;;10.80;;
14203;SDS011;7185;51.854;6.622;2023-05-14T01:48:38;15.40;;;10.55;;
14203;SDS011;7185;51.854;6.622;2023-05-14T01:51:10;18.67;;;11.55;;
14203;SDS011;7185;51.854;6.622;2023-05-14T01:53:45;19.63;;;12.07;;
14203;SDS011;7185;51.854;6.622;2023-05-14T01:56:16;16.70;;;12.02;;
14203;SDS011;7185;51.854;6.622;2023-05-14T01:58:48;18.00;;;12.30;;
14203;SDS011;7185;51.854;6.622;2023-05-14T02:01:20;17.75;;;11.65;;
14203;SDS011;7185;51.854;6.622;2023-05-14T02:03:52;14.88;;;12.23;;
14203;SDS011;7185;51.854;6.622;2023-05-14T02:06:23;18.58;;;13.48;;
14203;SDS011;7185;51.854;6.622;2023-05-14T02:08:57;17.70;;;12.30;;
14203;SDS011;7185;51.854;6.622;2023-05-14T02:11:29;18.73;;;12.10;;
14203;SDS011;7185;51.854;6.622;2023-05-14T02:14:00;17.70;;;12.48;;
14203;SDS011;7185;51.854;6.622;2023-05-14T02:16:32;16.67;;;12.63;;
14203;SDS011;7185;51.854;6.622;2023-05-14T02:19:03;19.80;;;13.63;;
14203;SDS011;7185;51.854;6.622;2023-05-14T02:21:35;17.25;;;13.88;;
14203;SDS011;7185;51.854;6.622;2023-05-14T02:24:08;24.63;;;14.38;;
14203;SDS011;7185;51.854;6.622;2023-05-14T02:26:39;21.92;;;13.27;;
14203;SDS011;7185;51.854;6.622;2023-05-14T02:29:11;18.35;;;13.18;;
14203;SDS011;7185;51.854;6.622;2023-05-14T02:31:43;21.17;;;12.98;;
14203;SDS011;7185;51.854;6.622;2023-05-14T02:34:14;18.20;;;13.07;;
14203;SDS011;7185;51.854;6.622;2023-05-14T02:36:46;20.98;;;13.15;;
14203;SDS011;7185;51.854;6.622;2023-05-14T02:39:19;23.92;;;14.23;;
14203;SDS011;7185;51.854;6.622;2023-05-14T02:41:50;16.55;;;12.90;;
14203;SDS011;7185;51.854;6.622;2023-05-14T02:44:22;20.38;;;14.25;;
14203;SDS011;7185;51.854;6.622;2023-05-14T02:46:54;19.20;;;14.25;;
14203;SDS011;7185;51.854;6.622;2023-05-14T02:49:25;22.33;;;14.13;;
14203;SDS011;7185;51.854;6.622;2023-05-14T02:51:57;18.55;;;14.80;;
14203;SDS011;7185;51.854;6.622;2023-05-14T02:54:31;19.02;;;14.57;;
14203;SDS011;7185;51.854;6.622;2023-05-14T02:57:02;17.58;;;14.10;;
14203;SDS011;7185;51.854;6.622;2023-05-14T02:59:34;16.10;;;13.90;;
14203;SDS011;7185;51.854;6.622;2023-05-14T03:02:06;25.08;;;15.23;;
14203;SDS011;7185;51.854;6.622;2023-05-14T03:04:37;21.33;;;14.88;;
14203;SDS011;7185;51.854;6.622;2023-05-14T03:07:09;21.42;;;14.45;;
14203;SDS011;7185;51.854;6.622;2023-05-14T03:09:42;21.50;;;15.57;;
14203;SDS011;7185;51.854;6.622;2023-05-14T03:12:13;18.48;;;14.13;;
14203;SDS011;7185;51.854;6.622;2023-05-14T03:14:45;19.90;;;15.05;;
14203;SDS011;7185;51.854;6.622;2023-05-14T03:17:16;21.63;;;15.07;;
14203;SDS011;7185;51.854;6.622;2023-05-14T03:19:48;18.25;;;15.00;;
14203;SDS011;7185;51.854;6.622;2023-05-14T03:22:20;24.10;;;15.07;;
14203;SDS011;7185;51.854;6.622;2023-05-14T03:24:53;21.77;;;15.32;;
14203;SDS011;7185;51.854;6.622;2023-05-14T03:27:24;27.70;;;15.77;;
14203;SDS011;7185;51.854;6.622;2023-05-14T03:29:56;24.98;;;15.77;;
14203;SDS011;7185;51.854;6.622;2023-05-14T03:32:27;22.02;;;16.48;;
14203;SDS011;7185;51.854;6.622;2023-05-14T03:34:59;26.10;;;15.35;;
14203;SDS011;7185;51.854;6.622;2023-05-14T03:37:33;26.67;;;15.48;;
14203;SDS011;7185;51.854;6.622;2023-05-14T03:40:06;25.13;;;15.95;;
14203;SDS011;7185;51.854;6.622;2023-05-14T03:42:38;24.48;;;16.13;;
14203;SDS011;7185;51.854;6.622;2023-05-14T03:45:10;22.42;;;15.90;;
14203;SDS011;7185;51.854;6.622;2023-05-14T03:47:41;22.55;;;15.95;;
14203;SDS011;7185;51.854;6.622;2023-05-14T03:50:13;23.75;;;14.65;;
14203;SDS011;7185;51.854;6.622;2023-05-14T03:52:45;25.85;;;16.08;;
14203;SDS011;7185;51.854;6.622;2023-05-14T03:55:18;23.40;;;16.48;;
14203;SDS011;7185;51.854;6.622;2023-05-14T03:57:50;22.30;;;15.93;;
14203;SDS011;7185;51.854;6.622;2023-05-14T04:00:21;24.52;;;15.40;;
14203;SDS011;7185;51.854;6.622;2023-05-14T04:02:53;21.42;;;15.68;;
14203;SDS011;7185;51.854;6.622;2023-05-14T04:05:25;26.08;;;16.65;;
14203;SDS011;7185;51.854;6.622;2023-05-14T04:07:56;22.15;;;16.48;;
14203;SDS011;7185;51.854;6.622;2023-05-14T04:10:29;25.35;;;16.23;;
14203;SDS011;7185;51.854;6.622;2023-05-14T04:13:01;24.95;;;16.05;;
14203;SDS011;7185;51.854;6.622;2023-05-14T04:15:33;23.35;;;16.45;;
14203;SDS011;7185;51.854;6.622;2023-05-14T04:18:08;21.63;;;16.60;;
14203;SDS011;7185;51.854;6.622;2023-05-14T04:20:39;25.85;;;16.88;;
14203;SDS011;7185;51.854;6.622;2023-05-14T04:23:11;22.38;;;16.17;;
14203;SDS011;7185;51.854;6.622;2023-05-14T04:25:44;23.73;;;17.60;;
14203;SDS011;7185;51.854;6.622;2023-05-14T04:28:16;25.67;;;17.10;;
14203;SDS011;7185;51.854;6.622;2023-05-14T04:30:47;24.10;;;17.40;;
14203;SDS011;7185;51.854;6.622;2023-05-14T04:33:19;27.77;;;18.00;;
14203;SDS011;7185;51.854;6.622;2023-05-14T04:35:51;24.98;;;17.90;;
14203;SDS011;7185;51.854;6.622;2023-05-14T04:38:22;24.17;;;17.35;;
14203;SDS011;7185;51.854;6.622;2023-05-14T04:40:56;27.67;;;17.42;;
14203;SDS011;7185;51.854;6.622;2023-05-14T04:43:27;22.17;;;17.60;;
14203;SDS011;7185;51.854;6.622;2023-05-14T04:45:59;26.92;;;19.08;;
14203;SDS011;7185;51.854;6.622;2023-05-14T04:48:31;27.35;;;18.90;;
14203;SDS011;7185;51.854;6.622;2023-05-14T04:51:02;26.10;;;18.88;;
14203;SDS011;7185;51.854;6.622;2023-05-14T04:53:34;27.33;;;19.52;;
14203;SDS011;7185;51.854;6.622;2023-05-14T04:56:07;33.20;;;19.70;;
14203;SDS011;7185;51.854;6.622;2023-05-14T04:58:39;25.63;;;19.23;;
14203;SDS011;7185;51.854;6.622;2023-05-14T05:01:11;23.92;;;18.13;;
14203;SDS011;7185;51.854;6.622;2023-05-14T05:03:43;26.10;;;19.80;;
14203;SDS011;7185;51.854;6.622;2023-05-14T05:06:15;24.05;;;19.20;;
14203;SDS011;7185;51.854;6.622;2023-05-14T05:08:47;25.75;;;19.42;;
14203;SDS011;7185;51.854;6.622;2023-05-14T05:11:19;30.70;;;18.73;;
14203;SDS011;7185;51.854;6.622;2023-05-14T05:13:51;29.17;;;20.13;;
14203;SDS011;7185;51.854;6.622;2023-05-14T05:16:23;26.23;;;19.45;;
14203;SDS011;7185;51.854;6.622;2023-05-14T05:18:54;25.55;;;19.92;;
14203;SDS011;7185;51.854;6.622;2023-05-14T05:21:26;26.45;;;19.90;;
14203;SDS011;7185;51.854;6.622;2023-05-14T05:23:57;30.10;;;19.98;;
14203;SDS011;7185;51.854;6.622;2023-05-14T05:26:30;28.05;;;18.80;;
14203;SDS011;7185;51.854;6.622;2023-05-14T05:29:02;25.13;;;19.00;;
14203;SDS011;7185;51.854;6.622;2023-05-14T05:31:34;24.73;;;19.00;;
14203;SDS011;7185;51.854;6.622;2023-05-14T05:34:05;23.65;;;19.05;;
14203;SDS011;7185;51.854;6.622;2023-05-14T05:36:37;26.20;;;19.70;;
14203;SDS011;7185;51.854;6.622;2023-05-14T05:39:09;25.13;;;18.45;;
14203;SDS011;7185;51.854;6.622;2023-05-14T05:41:41;26.70;;;18.95;;
14203;SDS011;7185;51.854;6.622;2023-05-14T05:44:13;30.50;;;18.83;;
14203;SDS011;7185;51.854;6.622;2023-05-14T05:46:45;26.55;;;17.80;;
14203;SDS011;7185;51.854;6.622;2023-05-14T05:49:16;27.42;;;19.85;;
14203;SDS011;7185;51.854;6.622;2023-05-14T05:51:48;23.98;;;17.60;;
14203;SDS011;7185;51.854;6.622;2023-05-14T05:54:28;24.17;;;17.38;;
14203;SDS011;7185;51.854;6.622;2023-05-14T05:57:18;22.58;;;18.17;;
14203;SDS011;7185;51.854;6.622;2023-05-14T06:00:01;23.63;;;18.35;;
14203;SDS011;7185;51.854;6.622;2023-05-14T06:02:41;35.17;;;18.50;;
14203;SDS011;7185;51.854;6.622;2023-05-14T06:05:14;20.65;;;16.17;;
14203;SDS011;7185;51.854;6.622;2023-05-14T06:07:45;24.05;;;17.52;;
14203;SDS011;7185;51.854;6.622;2023-05-14T06:10:17;26.67;;;17.35;;
14203;SDS011;7185;51.854;6.622;2023-05-14T06:12:51;21.60;;;16.48;;
14203;SDS011;7185;51.854;6.622;2023-05-14T06:19:29;23.95;;;17.20;;
14203;SDS011;7185;51.854;6.622;2023-05-14T06:22:30;23.60;;;16.25;;
14203;SDS011;7185;51.854;6.622;2023-05-14T06:25:43;22.85;;;16.45;;
14203;SDS011;7185;51.854;6.622;2023-05-14T06:28:16;20.35;;;16.23;;
14203;SDS011;7185;51.854;6.622;2023-05-14T06:33:29;21.05;;;16.50;;
14203;SDS011;7185;51.854;6.622;2023-05-14T06:36:03;23.92;;;16.63;;
14203;SDS011;7185;51.854;6.622;2023-05-14T06:38:36;25.80;;;16.02;;
14203;SDS011;7185;51.854;6.622;2023-05-14T06:41:08;18.63;;;14.93;;
14203;SDS011;7185;51.854;6.622;2023-05-14T06:43:41;20.60;;;15.48;;
14203;SDS011;7185;51.854;6.622;2023-05-14T06:46:12;21.48;;;15.80;;
14203;SDS011;7185;51.854;6.622;2023-05-14T06:48:44;19.02;;;14.52;;
14203;SDS011;7185;51.854;6.622;2023-05-14T06:51:18;19.17;;;15.10;;
14203;SDS011;7185;51.854;6.622;2023-05-14T06:53:50;18.77;;;15.73;;
14203;SDS011;7185;51.854;6.622;2023-05-14T06:56:23;19.67;;;14.80;;
14203;SDS011;7185;51.854;6.622;2023-05-14T07:01:29;15.57;;;11.85;;
14203;SDS011;7185;51.854;6.622;2023-05-14T07:04:00;17.17;;;13.07;;
14203;SDS011;7185;51.854;6.622;2023-05-14T07:06:32;17.92;;;13.88;;
14203;SDS011;7185;51.854;6.622;2023-05-14T07:09:03;17.50;;;13.68;;
14203;SDS011;7185;51.854;6.622;2023-05-14T07:11:35;18.95;;;14.25;;
14203;SDS011;7185;51.854;6.622;2023-05-14T07:14:07;16.20;;;13.60;;
14203;SDS011;7185;51.854;6.622;2023-05-14T07:16:40;17.80;;;12.43;;
14203;SDS011;7185;51.854;6.622;2023-05-14T07:19:12;19.02;;;12.68;;
14203;SDS011;7185;51.854;6.622;2023-05-14T07:21:43;19.73;;;14.25;;
14203;SDS011;7185;51.854;6.622;2023-05-14T07:24:15;17.85;;;13.13;;
14203;SDS011;7185;51.854;6.622;2023-05-14T07:26:47;16.45;;;13.50;;
14203;SDS011;7185;51.854;6.622;2023-05-14T07:29:18;16.42;;;12.82;;
14203;SDS011;7185;51.854;6.622;2023-05-14T07:31:51;19.30;;;13.85;;
14203;SDS011;7185;51.854;6.622;2023-05-14T07:34:26;17.88;;;14.10;;
14203;SDS011;7185;51.854;6.622;2023-05-14T07:36:58;14.80;;;12.27;;
14203;SDS011;7185;51.854;6.622;2023-05-14T07:39:29;17.98;;;13.02;;
14203;SDS011;7185;51.854;6.622;2023-05-14T07:42:01;15.05;;;12.27;;
14203;SDS011;7185;51.854;6.622;2023-05-14T07:44:34;12.77;;;10.85;;
14203;SDS011;7185;51.854;6.622;2023-05-14T07:47:07;13.00;;;10.85;;
14203;SDS011;7185;51.854;6.622;2023-05-14T07:49:39;11.60;;;10.35;;
14203;SDS011;7185;51.854;6.622;2023-05-14T07:52:11;15.63;;;10.80;;
14203;SDS011;7185;51.854;6.622;2023-05-14T07:54:43;18.25;;;11.77;;
14203;SDS011;7185;51.854;6.622;2023-05-14T07:57:14;14.15;;;11.65;;
14203;SDS011;7185;51.854;6.622;2023-05-14T07:59:46;15.25;;;10.70;;
14203;SDS011;7185;51.854;6.622;2023-05-14T08:02:20;14.00;;;11.57;;
14203;SDS011;7185;51.854;6.622;2023-05-14T08:04:57;12.30;;;10.77;;
14203;SDS011;7185;51.854;6.622;2023-05-14T08:07:28;11.95;;;10.40;;
14203;SDS011;7185;51.854;6.622;2023-05-14T08:10:00;13.57;;;9.57;;
14203;SDS011;7185;51.854;6.622;2023-05-14T08:12:32;12.63;;;8.45;;
14203;SDS011;7185;51.854;6.622;2023-05-14T08:15:04;13.23;;;9.20;;
14203;SDS011;7185;51.854;6.622;2023-05-14T08:17:38;12.43;;;9.38;;
14203;SDS011;7185;51.854;6.622;2023-05-14T08:20:10;12.48;;;9.48;;
14203;SDS011;7185;51.854;6.622;2023-05-14T08:22:42;12.38;;;8.35;;
14203;SDS011;7185;51.854;6.622;2023-05-14T08:25:13;12.68;;;9.20;;
14203;SDS011;7185;51.854;6.622;2023-05-14T08:27:45;15.27;;;9.18;;
14203;SDS011;7185;51.854;6.622;2023-05-14T08:30:16;11.05;;;8.48;;
14203;SDS011;7185;51.854;6.622;2023-05-14T08:32:52;12.75;;;9.63;;
14203;SDS011;7185;51.854;6.622;2023-05-14T08:35:24;12.75;;;9.70;;
14203;SDS011;7185;51.854;6.622;2023-05-14T08:37:55;13.20;;;9.07;;
14203;SDS011;7185;51.854;6.622;2023-05-14T08:40:27;12.00;;;9.77;;
14203;SDS011;7185;51.854;6.622;2023-05-14T08:42:59;13.93;;;9.43;;
14203;SDS011;7185;51.854;6.622;2023-05-14T08:45:30;13.55;;;10.60;;
14203;SDS011;7185;51.854;6.622;2023-05-14T08:48:06;12.15;;;9.88;;
14203;SDS011;7185;51.854;6.622;2023-05-14T08:50:42;11.82;;;9.65;;
14203;SDS011;7185;51.854;6.622;2023-05-14T08:53:14;12.93;;;9.68;;
14203;SDS011;7185;51.854;6.622;2023-05-14T08:55:46;13.73;;;9.13;;
14203;SDS011;7185;51.854;6.622;2023-05-14T08:58:23;14.57;;;10.45;;
14203;SDS011;7185;51.854;6.622;2023-05-14T09:00:57;14.68;;;9.20;;
14203;SDS011;7185;51.854;6.622;2023-05-14T09:03:30;11.35;;;9.05;;
14203;SDS011;7185;51.854;6.622;2023-05-14T09:06:03;10.73;;;8.60;;
14203;SDS011;7185;51.854;6.622;2023-05-14T09:08:36;10.60;;;8.35;;
14203;SDS011;7185;51.854;6.622;2023-05-14T09:11:07;12.38;;;8.50;;
14203;SDS011;7185;51.854;6.622;2023-05-14T09:13:39;10.80;;;7.50;;
14203;SDS011;7185;51.854;6.622;2023-05-14T09:16:11;12.82;;;8.38;;
14203;SDS011;7185;51.854;6.622;2023-05-14T09:18:44;13.45;;;8.32;;
14203;SDS011;7185;51.854;6.622;2023-05-14T09:21:15;9.80;;;7.40;;
14203;SDS011;7185;51.854;6.622;2023-05-14T09:23:48;12.18;;;8.30;;
14203;SDS011;7185;51.854;6.622;2023-05-14T09:26:24;9.90;;;6.97;;
14203;SDS011;7185;51.854;6.622;2023-05-14T09:28:56;8.32;;;6.55;;
14203;SDS011;7185;51.854;6.622;2023-05-14T09:31:31;9.05;;;6.43;;
14203;SDS011;7185;51.854;6.622;2023-05-14T09:34:04;8.82;;;6.97;;
14203;SDS011;7185;51.854;6.622;2023-05-14T09:36:36;11.00;;;6.60;;
14203;SDS011;7185;51.854;6.622;2023-05-14T09:39:08;9.68;;;7.03;;
14203;SDS011;7185;51.854;6.622;2023-05-14T09:41:39;9.82;;;7.43;;
14203;SDS011;7185;51.854;6.622;2023-05-14T09:44:11;8.60;;;7.68;;
14203;SDS011;7185;51.854;6.622;2023-05-14T09:46:43;10.90;;;7.43;;
14203;SDS011;7185;51.854;6.622;2023-05-14T09:49:16;10.77;;;8.18;;
14203;SDS011;7185;51.854;6.622;2023-05-14T09:51:49;8.85;;;7.57;;
14203;SDS011;7185;51.854;6.622;2023-05-14T09:54:24;14.32;;;7.60;;
14203;SDS011;7185;51.854;6.622;2023-05-14T09:56:56;9.27;;;6.57;;
14203;SDS011;7185;51.854;6.622;2023-05-14T09:59:28;11.00;;;8.10;;
14203;SDS011;7185;51.854;6.622;2023-05-14T10:02:00;11.10;;;7.72;;
14203;SDS011;7185;51.854;6.622;2023-05-14T10:04:33;8.45;;;6.90;;
14203;SDS011;7185;51.854;6.622;2023-05-14T10:07:06;10.88;;;7.97;;
14203;SDS011;7185;51.854;6.622;2023-05-14T10:09:38;13.35;;;8.18;;
14203;SDS011;7185;51.854;6.622;2023-05-14T10:12:13;14.55;;;8.82;;
14203;SDS011;7185;51.854;6.622;2023-05-14T10:14:52;11.77;;;8.38;;
14203;SDS011;7185;51.854;6.622;2023-05-14T10:17:30;9.13;;;7.32;;
14203;SDS011;7185;51.854;6.622;2023-05-14T10:20:06;7.97;;;7.15;;
14203;SDS011;7185;51.854;6.622;2023-05-14T10:22:43;11.40;;;7.13;;
14203;SDS011;7185;51.854;6.622;2023-05-14T10:25:14;11.15;;;6.10;;
14203;SDS011;7185;51.854;6.622;2023-05-14T10:27:46;6.65;;;4.95;;
14203;SDS011;7185;51.854;6.622;2023-05-14T10:30:19;7.03;;;5.00;;
14203;SDS011;7185;51.854;6.622;2023-05-14T10:33:04;8.57;;;5.05;;
14203;SDS011;7185;51.854;6.622;2023-05-14T10:35:50;7.15;;;5.18;;
14203;SDS011;7185;51.854;6.622;2023-05-14T10:38:26;10.20;;;5.20;;
14203;SDS011;7185;51.854;6.622;2023-05-14T10:41:01;8.30;;;5.72;;
14203;SDS011;7185;51.854;6.622;2023-05-14T10:43:35;8.13;;;5.68;;
14203;SDS011;7185;51.854;6.622;2023-05-14T10:46:08;10.88;;;5.90;;
14203;SDS011;7185;51.854;6.622;2023-05-14T10:48:42;8.07;;;5.38;;
14203;SDS011;7185;51.854;6.622;2023-05-14T10:51:15;8.35;;;4.72;;
14203;SDS011;7185;51.854;6.622;2023-05-14T10:53:54;7.78;;;4.65;;
14203;SDS011;7185;51.854;6.622;2023-05-14T10:56:31;8.85;;;5.22;;
14203;SDS011;7185;51.854;6.622;2023-05-14T10:59:03;8.23;;;5.00;;
14203;SDS011;7185;51.854;6.622;2023-05-14T11:01:38;7.65;;;4.93;;
14203;SDS011;7185;51.854;6.622;2023-05-14T11:04:16;7.40;;;4.45;;
14203;SDS011;7185;51.854;6.622;2023-05-14T11:09:33;8.50;;;5.13;;
14203;SDS011;7185;51.854;6.622;2023-05-14T11:12:06;8.10;;;4.82;;
14203;SDS011;7185;51.854;6.622;2023-05-14T11:14:38;11.10;;;4.93;;
14203;SDS011;7185;51.854;6.622;2023-05-14T11:17:13;8.83;;;4.07;;
14203;SDS011;7185;51.854;6.622;2023-05-14T11:19:49;7.93;;;3.90;;
14203;SDS011;7185;51.854;6.622;2023-05-14T11:22:22;6.47;;;3.78;;
14203;SDS011;7185;51.854;6.622;2023-05-14T11:24:54;5.15;;;4.00;;
14203;SDS011;7185;51.854;6.622;2023-05-14T11:27:25;10.82;;;3.85;;
14203;SDS011;7185;51.854;6.622;2023-05-14T11:29:57;7.25;;;3.75;;
14203;SDS011;7185;51.854;6.622;2023-05-14T11:32:30;6.88;;;3.85;;
14203;SDS011;7185;51.854;6.622;2023-05-14T11:35:02;5.68;;;3.63;;
14203;SDS011;7185;51.854;6.622;2023-05-14T11:37:36;8.13;;;3.30;;
14203;SDS011;7185;51.854;6.622;2023-05-14T11:40:08;4.47;;;3.10;;
14203;SDS011;7185;51.854;6.622;2023-05-14T11:42:45;9.50;;;4.10;;
14203;SDS011;7185;51.854;6.622;2023-05-14T11:45:23;5.28;;;4.05;;
14203;SDS011;7185;51.854;6.622;2023-05-14T11:47:55;6.53;;;5.47;;
14203;SDS011;7185;51.854;6.622;2023-05-14T11:50:27;6.63;;;4.43;;
14203;SDS011;7185;51.854;6.622;2023-05-14T11:53:00;9.18;;;5.30;;
14203;SDS011;7185;51.854;6.622;2023-05-14T11:55:32;9.48;;;5.82;;
14203;SDS011;7185;51.854;6.622;2023-05-14T11:58:05;10.50;;;5.13;;
14203;SDS011;7185;51.854;6.622;2023-05-14T12:00:37;10.50;;;5.57;;
14203;SDS011;7185;51.854;6.622;2023-05-14T12:03:09;6.65;;;5.28;;
14203;SDS011;7185;51.854;6.622;2023-05-14T12:05:53;7.40;;;5.43;;
14203;SDS011;7185;51.854;6.622;2023-05-14T12:08:27;6.93;;;5.03;;
14203;SDS011;7185;51.854;6.622;2023-05-14T12:11:00;9.23;;;5.47;;
14203;SDS011;7185;51.854;6.622;2023-05-14T12:13:32;11.68;;;5.80;;
14203;SDS011;7185;51.854;6.622;2023-05-14T12:16:03;6.82;;;5.57;;
14203;SDS011;7185;51.854;6.622;2023-05-14T12:18:35;8.15;;;5.55;;
14203;SDS011;7185;51.854;6.622;2023-05-14T12:21:07;13.93;;;5.53;;
14203;SDS011;7185;51.854;6.622;2023-05-14T12:23:40;7.97;;;6.20;;
14203;SDS011;7185;51.854;6.622;2023-05-14T12:26:11;8.63;;;5.65;;
14203;SDS011;7185;51.854;6.622;2023-05-14T12:28:44;7.32;;;5.15;;
14203;SDS011;7185;51.854;6.622;2023-05-14T12:31:18;7.88;;;5.15;;
14203;SDS011;7185;51.854;6.622;2023-05-14T12:33:58;7.72;;;4.43;;
14203;SDS011;7185;51.854;6.622;2023-05-14T12:36:29;8.57;;;4.65;;
14203;SDS011;7185;51.854;6.622;2023-05-14T12:39:03;8.38;;;4.68;;
14203;SDS011;7185;51.854;6.622;2023-05-14T12:41:35;8.75;;;3.83;;
14203;SDS011;7185;51.854;6.622;2023-05-14T12:44:07;7.90;;;3.33;;
14203;SDS011;7185;51.854;6.622;2023-05-14T12:46:38;6.95;;;3.90;;
14203;SDS011;7185;51.854;6.622;2023-05-14T12:49:10;5.20;;;3.55;;
14203;SDS011;7185;51.854;6.622;2023-05-14T12:51:44;6.85;;;3.60;;
14203;SDS011;7185;51.854;6.622;2023-05-14T12:54:18;6.65;;;3.67;;
14203;SDS011;7185;51.854;6.622;2023-05-14T12:56:50;4.25;;;3.50;;
14203;SDS011;7185;51.854;6.622;2023-05-14T12:59:21;5.90;;;3.45;;
14203;SDS011;7185;51.854;6.622;2023-05-14T13:01:53;5.90;;;3.65;;
14203;SDS011;7185;51.854;6.622;2023-05-14T13:04:24;5.55;;;3.15;;
14203;SDS011;7185;51.854;6.622;2023-05-14T13:06:56;7.57;;;3.40;;
14203;SDS011;7185;51.854;6.622;2023-05-14T13:09:29;6.35;;;3.10;;
14203;SDS011;7185;51.854;6.622;2023-05-14T13:12:03;5.97;;;3.15;;
14203;SDS011;7185;51.854;6.622;2023-05-14T13:14:35;4.68;;;2.92;;
14203;SDS011;7185;51.854;6.622;2023-05-14T13:17:07;7.40;;;3.35;;
14203;SDS011;7185;51.854;6.622;2023-05-14T13:19:39;6.97;;;3.25;;
14203;SDS011;7185;51.854;6.622;2023-05-14T13:22:10;4.38;;;2.70;;
14203;SDS011;7185;51.854;6.622;2023-05-14T13:24:43;4.57;;;2.70;;
14203;SDS011;7185;51.854;6.622;2023-05-14T13:27:15;4.45;;;2.65;;
14203;SDS011;7185;51.854;6.622;2023-05-14T13:29:47;5.55;;;2.85;;
14203;SDS011;7185;51.854;6.622;2023-05-14T13:32:18;6.25;;;2.63;;
14203;SDS011;7185;51.854;6.622;2023-05-14T13:34:50;6.43;;;3.03;;
14203;SDS011;7185;51.854;6.622;2023-05-14T13:37:23;4.55;;;2.67;;
14203;SDS011;7185;51.854;6.622;2023-05-14T13:39:57;3.70;;;2.67;;
14203;SDS011;7185;51.854;6.622;2023-05-14T13:42:28;9.95;;;4.15;;
14203;SDS011;7185;51.854;6.622;2023-05-14T13:45:00;6.90;;;4.93;;
14203;SDS011;7185;51.854;6.622;2023-05-14T13:47:32;8.82;;;5.35;;
14203;SDS011;7185;51.854;6.622;2023-05-14T13:50:05;7.25;;;5.30;;
14203;SDS011;7185;51.854;6.622;2023-05-14T13:52:37;9.93;;;4.80;;
14203;SDS011;7185;51.854;6.622;2023-05-14T13:55:10;8.75;;;5.53;;
14203;SDS011;7185;51.854;6.622;2023-05-14T13:57:42;7.28;;;4.93;;
14203;SDS011;7185;51.854;6.622;2023-05-14T14:00:14;9.10;;;5.20;;
14203;SDS011;7185;51.854;6.622;2023-05-14T14:02:46;9.93;;;5.25;;
14203;SDS011;7185;51.854;6.622;2023-05-14T14:05:18;14.50;;;9.90;;
14203;SDS011;7185;51.854;6.622;2023-05-14T14:07:50;9.32;;;4.78;;
14203;SDS011;7185;51.854;6.622;2023-05-14T14:10:23;8.32;;;4.85;;
14203;SDS011;7185;51.854;6.622;2023-05-14T14:12:54;6.75;;;4.57;;
14203;SDS011;7185;51.854;6.622;2023-05-14T14:15:26;10.57;;;4.63;;
14203;SDS011;7185;51.854;6.622;2023-05-14T14:17:57;6.85;;;4.30;;
14203;SDS011;7185;51.854;6.622;2023-05-14T14:20:30;7.97;;;4.43;;
14203;SDS011;7185;51.854;6.622;2023-05-14T14:23:02;6.93;;;4.13;;
14203;SDS011;7185;51.854;6.622;2023-05-14T14:25:35;9.70;;;4.25;;
14203;SDS011;7185;51.854;6.622;2023-05-14T14:28:08;9.43;;;4.00;;
14203;SDS011;7185;51.854;6.622;2023-05-14T14:30:40;7.10;;;4.00;;
14203;SDS011;7185;51.854;6.622;2023-05-14T14:33:12;8.07;;;4.05;;
14203;SDS011;7185;51.854;6.622;2023-05-14T14:35:44;7.18;;;4.30;;
14203;SDS011;7185;51.854;6.622;2023-05-14T14:38:16;5.70;;;4.03;;
14203;SDS011;7185;51.854;6.622;2023-05-14T14:40:49;7.30;;;4.20;;
14203;SDS011;7185;51.854;6.622;2023-05-14T14:43:23;9.07;;;4.32;;
14203;SDS011;7185;51.854;6.622;2023-05-14T14:45:55;7.03;;;3.90;;
14203;SDS011;7185;51.854;6.622;2023-05-14T14:48:27;6.13;;;3.70;;
14203;SDS011;7185;51.854;6.622;2023-05-14T14:51:02;5.00;;;3.95;;
14203;SDS011;7185;51.854;6.622;2023-05-14T14:53:35;5.95;;;3.85;;
14203;SDS011;7185;51.854;6.622;2023-05-14T14:56:08;6.53;;;3.88;;
14203;SDS011;7185;51.854;6.622;2023-05-14T14:58:40;6.78;;;3.92;;
14203;SDS011;7185;51.854;6.622;2023-05-14T15:01:11;6.32;;;3.70;;
14203;SDS011;7185;51.854;6.622;2023-05-14T15:03:43;8.23;;;4.13;;
14203;SDS011;7185;51.854;6.622;2023-05-14T15:06:17;6.53;;;4.00;;
14203;SDS011;7185;51.854;6.622;2023-05-14T15:08:48;10.68;;;4.10;;
14203;SDS011;7185;51.854;6.622;2023-05-14T15:11:29;5.13;;;3.60;;
14203;SDS011;7185;51.854;6.622;2023-05-14T15:14:01;8.38;;;3.88;;
14203;SDS011;7185;51.854;6.622;2023-05-14T15:16:35;9.77;;;3.97;;
14203;SDS011;7185;51.854;6.622;2023-05-14T15:19:07;7.95;;;3.85;;
14203;SDS011;7185;51.854;6.622;2023-05-14T15:21:38;10.23;;;3.83;;
14203;SDS011;7185;51.854;6.622;2023-05-14T15:24:10;6.40;;;3.75;;
14203;SDS011;7185;51.854;6.622;2023-05-14T15:26:44;5.95;;;3.70;;
14203;SDS011;7185;51.854;6.622;2023-05-14T15:29:16;6.45;;;3.67;;
14203;SDS011;7185;51.854;6.622;2023-05-14T15:31:47;7.47;;;3.75;;
14203;SDS011;7185;51.854;6.622;2023-05-14T15:34:21;10.77;;;3.92;;